createdAt,value
2019-02-21T00:02:15.116Z,95886.35
2019-02-21T00:05:22.714Z,95888.48
2019-02-21T00:08:30.872Z,95893.00
2019-02-21T00:11:38.913Z,95891.13
2019-02-21T00:14:46.533Z,95891.16
2019-02-21T00:17:53.690Z,95900.53
2019-02-21T00:21:00.957Z,95898.15
2019-02-21T00:24:08.120Z,95895.48
2019-02-21T00:27:15.676Z,95899.95
2019-02-21T00:30:23.033Z,95897.06
2019-02-21T00:33:30.712Z,95894.69
2019-02-21T00:36:38.483Z,95899.70
2019-02-21T00:39:45.620Z,95898.05
2019-02-21T00:42:53.281Z,95899.09
2019-02-21T00:46:00.558Z,95908.24
2019-02-21T00:49:07.763Z,95901.36
2019-02-21T00:52:14.936Z,95909.35
2019-02-21T00:55:23.500Z,95903.78
2019-02-21T00:58:30.936Z,95908.43
2019-02-21T01:01:38.088Z,95898.45
2019-02-21T01:04:45.911Z,95904.77
2019-02-21T01:07:53.530Z,95904.58
2019-02-21T01:11:00.905Z,95901.98
2019-02-21T01:14:08.317Z,95903.86
2019-02-21T01:17:15.468Z,95906.48
2019-02-21T01:20:22.628Z,95900.25
2019-02-21T01:23:30.085Z,95898.20
2019-02-21T01:26:37.790Z,95898.95
2019-02-21T01:29:44.949Z,95898.19
2019-02-21T01:32:52.987Z,95904.24
2019-02-21T01:36:00.578Z,95910.19
2019-02-21T01:39:08.390Z,95912.27
2019-02-21T01:42:16.193Z,95914.84
2019-02-21T01:45:23.442Z,95917.24
2019-02-21T01:48:30.631Z,95917.33
2019-02-21T01:51:37.917Z,95920.74
2019-02-21T01:54:46.324Z,95922.53
2019-02-21T01:57:53.774Z,95921.56
2019-02-21T02:01:08.433Z,95915.94
2019-02-21T02:04:10.612Z,95917.37
2019-02-21T02:07:18.078Z,95919.16
2019-02-21T02:10:25.815Z,95916.48
2019-02-21T02:13:33.609Z,95915.16
2019-02-21T02:16:41.005Z,95913.58
2019-02-21T02:19:48.385Z,95914.92
2019-02-21T02:22:55.654Z,95922.36
2019-02-21T02:26:03.170Z,95923.95
2019-02-21T02:29:10.575Z,95929.09
2019-02-21T02:32:17.735Z,95922.16
2019-02-21T02:35:25.260Z,95931.56
2019-02-21T02:38:32.441Z,95930.49
2019-02-21T02:41:40.189Z,95930.18
2019-02-21T02:44:47.408Z,95927.77
2019-02-21T02:47:54.937Z,95932.41
2019-02-21T02:51:02.340Z,95934.86
2019-02-21T02:54:09.824Z,95932.92
2019-02-21T02:57:17.351Z,95936.17
2019-02-21T03:00:24.516Z,95934.83
2019-02-21T03:03:31.787Z,95939.42
2019-02-21T03:06:39.170Z,95940.77
2019-02-21T03:09:46.560Z,95944.09
2019-02-21T03:12:53.827Z,95945.73
2019-02-21T03:16:01.405Z,95941.56
2019-02-21T03:19:08.667Z,95938.43
2019-02-21T03:22:16.222Z,95935.42
2019-02-21T03:25:23.519Z,95942.56
2019-02-21T03:28:31.030Z,95942.83
2019-02-21T03:31:53.368Z,95944.66
2019-02-21T03:34:47.817Z,95942.89
2019-02-21T03:37:55.237Z,95943.41
2019-02-21T03:41:02.972Z,95944.41
2019-02-21T03:44:10.134Z,95943.55
2019-02-21T03:47:17.773Z,95950.09
2019-02-21T03:50:25.342Z,95946.13
2019-02-21T03:53:33.137Z,95951.40
2019-02-21T03:56:40.377Z,95957.98
2019-02-21T03:59:47.761Z,95952.15
2019-02-21T04:02:55.127Z,95955.84
2019-02-21T04:06:02.603Z,95948.41
2019-02-21T04:09:09.886Z,95950.58
2019-02-21T04:12:17.182Z,95954.16
2019-02-21T04:15:24.726Z,95950.09
2019-02-21T04:18:32.539Z,95956.75
2019-02-21T04:21:39.950Z,95955.60
2019-02-21T04:24:47.623Z,95955.27
2019-02-21T04:27:55.169Z,95955.11
2019-02-21T04:31:02.529Z,95955.09
2019-02-21T04:34:10.117Z,95951.88
2019-02-21T04:37:17.275Z,95951.32
2019-02-21T04:40:24.625Z,95952.30
2019-02-21T04:43:32.861Z,95956.38
2019-02-21T04:46:42.877Z,95957.16
2019-02-21T04:49:50.064Z,95953.13
2019-02-21T04:52:57.238Z,95956.27
2019-02-21T04:56:04.893Z,95954.72
2019-02-21T04:59:12.571Z,95953.83
2019-02-21T05:02:28.435Z,95952.20
2019-02-21T05:05:29.980Z,95956.34
2019-02-21T05:08:37.660Z,95962.53
2019-02-21T05:11:45.179Z,95960.91
2019-02-21T05:14:52.390Z,95969.02
2019-02-21T05:17:59.918Z,95967.05
2019-02-21T05:21:07.369Z,95964.44
2019-02-21T05:24:14.905Z,95967.69
2019-02-21T05:27:28.001Z,95966.66
2019-02-21T05:30:36.345Z,95966.92
2019-02-21T05:33:57.631Z,95968.45
2019-02-21T05:37:30.808Z,95976.25
2019-02-21T05:40:54.740Z,95972.55
2019-02-21T05:44:21.811Z,95972.83
2019-02-21T05:47:47.350Z,95976.83
2019-02-21T05:51:17.191Z,95980.73
2019-02-21T05:54:35.465Z,95971.86
2019-02-21T05:57:52.923Z,95983.34
2019-02-21T06:01:07.147Z,95980.16
2019-02-21T06:04:32.613Z,95985.73
2019-02-21T06:07:50.184Z,95993.30
2019-02-21T06:11:09.120Z,95987.08
2019-02-21T06:14:35.936Z,95991.69
2019-02-21T06:18:11.851Z,95994.36
2019-02-21T06:21:41.968Z,95994.55
2019-02-21T06:25:04.444Z,96005.05
2019-02-21T06:28:37.088Z,96005.84
2019-02-21T06:31:44.512Z,96006.35
2019-02-21T06:34:52.786Z,95999.63
2019-02-21T06:37:59.992Z,95998.05
2019-02-21T06:41:07.827Z,96005.48
2019-02-21T06:44:15.224Z,95994.64
2019-02-21T06:47:22.504Z,96005.86
2019-02-21T06:50:30.205Z,96007.70
2019-02-21T06:53:37.698Z,96015.64
2019-02-21T06:56:45.190Z,96018.58
2019-02-21T06:59:52.697Z,96019.23
2019-02-21T07:03:00.594Z,96023.01
2019-02-21T07:06:08.250Z,96022.91
2019-02-21T07:09:15.576Z,96025.97
2019-02-21T07:12:23.705Z,96029.53
2019-02-21T07:15:31.183Z,96034.54
2019-02-21T07:18:40.780Z,96041.03
2019-02-21T07:21:48.572Z,96039.69
2019-02-21T07:25:00.651Z,96041.16
2019-02-21T07:28:11.837Z,96041.81
2019-02-21T07:31:28.193Z,96047.38
2019-02-21T07:34:26.858Z,96046.78
2019-02-21T07:37:35.134Z,96051.22
2019-02-21T07:40:42.308Z,96048.53
2019-02-21T07:43:49.578Z,96055.28
2019-02-21T07:46:57.216Z,96050.98
2019-02-21T07:50:05.257Z,96054.03
2019-02-21T07:53:12.633Z,96057.84
2019-02-21T07:56:19.832Z,96071.28
2019-02-21T07:59:27.005Z,96066.55
2019-02-21T08:02:34.796Z,96068.95
2019-02-21T08:05:42.392Z,96075.23
2019-02-21T08:08:49.925Z,96073.92
2019-02-21T08:11:57.609Z,96075.25
2019-02-21T08:15:06.829Z,96073.41
2019-02-21T08:18:14.837Z,96068.84
2019-02-21T08:21:22.345Z,96057.50
2019-02-21T08:24:29.768Z,96049.81
2019-02-21T08:27:37.270Z,96052.34
2019-02-21T08:30:44.620Z,96054.19
2019-02-21T08:34:12.082Z,96058.46
2019-02-21T08:37:19.252Z,96058.52
2019-02-21T08:40:26.883Z,96058.93
2019-02-21T08:43:34.273Z,96063.39
2019-02-21T08:46:41.558Z,96059.17
2019-02-21T08:49:49.204Z,96054.97
2019-02-21T08:52:56.972Z,96057.78
2019-02-21T08:56:04.654Z,96056.59
2019-02-21T08:59:11.831Z,96057.41
2019-02-21T09:05:28.152Z,96061.66
2019-02-21T09:08:37.249Z,96056.72
2019-02-21T09:11:44.754Z,96059.92
2019-02-21T09:14:52.035Z,96066.08
2019-02-21T09:17:59.313Z,96067.02
2019-02-21T09:21:07.135Z,96068.88
2019-02-21T09:24:26.821Z,96061.77
2019-02-21T09:27:23.864Z,96067.36
2019-02-21T09:30:31.605Z,96072.86
2019-02-21T09:33:40.166Z,96079.80
2019-02-21T09:36:47.809Z,96076.84
2019-02-21T09:39:55.383Z,96089.00
2019-02-21T09:43:03.199Z,96091.16
2019-02-21T09:46:11.106Z,96089.77
2019-02-21T09:49:18.725Z,96091.42
2019-02-21T09:52:26.300Z,96088.98
2019-02-21T09:55:34.060Z,96090.31
2019-02-21T09:58:42.109Z,96095.55
2019-02-21T10:01:49.281Z,96094.28
2019-02-21T10:05:04.597Z,96094.81
2019-02-21T10:08:05.882Z,96095.95
2019-02-21T10:11:13.322Z,96086.78
2019-02-21T10:14:21.548Z,96085.54
2019-02-21T10:17:29.231Z,96090.17
2019-02-21T10:20:36.951Z,96093.95
2019-02-21T10:23:44.292Z,96088.15
2019-02-21T10:26:51.670Z,96083.04
2019-02-21T10:29:59.079Z,96086.55
2019-02-21T10:33:06.716Z,96085.52
2019-02-21T10:36:14.310Z,96087.41
2019-02-21T10:39:22.113Z,96082.41
2019-02-21T10:42:29.388Z,96074.25
2019-02-21T10:45:47.076Z,96075.30
2019-02-21T10:48:45.614Z,96079.52
2019-02-21T10:51:52.885Z,96071.92
2019-02-21T10:55:00.285Z,96071.10
2019-02-21T10:58:08.014Z,96069.93
2019-02-21T11:01:15.295Z,96064.75
2019-02-21T11:04:22.698Z,96065.67
2019-02-21T11:07:29.972Z,96059.94
2019-02-21T11:10:37.334Z,96055.87
2019-02-21T11:13:44.774Z,96046.70
2019-02-21T11:16:51.950Z,96039.25
2019-02-21T11:19:59.786Z,96039.30
2019-02-21T11:23:07.469Z,96039.47
2019-02-21T11:26:15.107Z,96038.85
2019-02-21T11:29:22.783Z,96040.60
2019-02-21T11:32:29.945Z,96030.91
2019-02-21T11:35:37.242Z,96030.16
2019-02-21T11:38:44.655Z,96023.34
2019-02-21T11:41:52.256Z,96021.58
2019-02-21T11:44:59.628Z,96022.41
2019-02-21T11:48:09.317Z,96023.45
2019-02-21T11:51:16.802Z,96027.38
2019-02-21T11:54:27.217Z,96024.94
2019-02-21T11:57:34.031Z,96028.61
2019-02-21T12:00:41.509Z,96026.59
2019-02-21T12:03:48.790Z,96016.53
2019-02-21T12:06:56.051Z,96021.52
2019-02-21T12:10:04.719Z,96019.70
2019-02-21T12:13:11.999Z,96017.55
2019-02-21T12:16:19.191Z,96017.01
2019-02-21T12:19:26.467Z,96009.73
2019-02-21T12:22:34.197Z,96006.91
2019-02-21T12:25:41.472Z,96011.49
2019-02-21T12:28:48.778Z,96014.61
2019-02-21T12:31:56.272Z,96005.23
2019-02-21T12:35:03.797Z,95996.88
2019-02-21T12:38:11.678Z,96007.07
2019-02-21T12:41:19.033Z,96008.58
2019-02-21T12:44:26.214Z,96007.30
2019-02-21T12:47:33.525Z,96000.22
2019-02-21T12:50:44.285Z,96009.55
2019-02-21T12:53:50.138Z,96000.33
2019-02-21T12:56:57.788Z,95998.76
2019-02-21T13:00:09.655Z,95996.09
2019-02-21T13:03:16.944Z,95996.59
2019-02-21T13:06:24.777Z,95998.77
2019-02-21T13:09:32.679Z,95996.48
2019-02-21T13:12:40.052Z,95995.62
2019-02-21T13:15:47.767Z,95996.89
2019-02-21T13:18:54.953Z,95999.99
2019-02-21T13:22:02.308Z,95995.16
2019-02-21T13:25:11.014Z,95996.31
2019-02-21T13:28:18.287Z,95989.52
2019-02-21T13:31:26.072Z,95993.75
2019-02-21T13:34:33.243Z,95989.36
2019-02-21T13:37:41.087Z,95993.03
2019-02-21T13:40:49.574Z,95990.20
2019-02-21T13:43:56.922Z,95991.72
2019-02-21T13:47:04.679Z,95989.45
2019-02-21T13:50:14.208Z,95987.66
2019-02-21T13:53:21.470Z,95983.45
2019-02-21T13:56:28.662Z,95985.33
2019-02-21T13:59:36.088Z,95977.77
2019-02-21T14:02:43.466Z,95978.06
2019-02-21T14:05:50.829Z,95978.70
2019-02-21T14:08:58.281Z,95969.39
2019-02-21T14:12:05.821Z,95974.80
2019-02-21T14:15:19.341Z,95969.34
2019-02-21T14:18:26.744Z,95967.38
2019-02-21T14:21:33.924Z,95962.94
2019-02-21T14:24:41.464Z,95956.61
2019-02-21T14:27:48.825Z,95952.14
2019-02-21T14:30:56.202Z,95950.81
2019-02-21T14:34:03.674Z,95951.64
2019-02-21T14:37:10.845Z,95949.58
2019-02-21T14:40:18.289Z,95950.33
2019-02-21T14:43:26.048Z,95941.33
2019-02-21T14:46:33.209Z,95944.78
2019-02-21T14:49:40.799Z,95943.31
2019-02-21T14:52:48.025Z,95941.73
2019-02-21T14:55:55.441Z,95944.41
2019-02-21T14:59:02.819Z,95936.83
2019-02-21T15:02:10.101Z,95933.23
2019-02-21T15:05:18.111Z,95937.20
2019-02-21T15:08:25.235Z,95929.70
2019-02-21T15:11:32.512Z,95921.47
2019-02-21T15:14:39.933Z,95919.67
2019-02-21T15:17:50.903Z,95917.92
2019-02-21T15:20:58.783Z,95915.67
2019-02-21T15:24:06.039Z,95918.19
2019-02-21T15:27:13.571Z,95922.11
2019-02-21T15:30:22.381Z,95911.38
2019-02-21T15:33:29.812Z,95911.98
2019-02-21T15:36:38.637Z,95913.53
2019-02-21T15:39:46.557Z,95912.27
2019-02-21T15:42:54.308Z,95907.02
2019-02-21T15:46:02.030Z,95909.34
2019-02-21T15:49:09.940Z,95912.06
2019-02-21T15:52:22.222Z,95904.75
2019-02-21T15:55:28.304Z,95904.47
2019-02-21T15:58:35.849Z,95914.83
2019-02-21T16:01:47.841Z,95912.14
2019-02-21T16:04:56.323Z,95917.31
2019-02-21T16:08:04.561Z,95918.23
2019-02-21T16:11:16.639Z,95921.92
2019-02-21T16:14:24.758Z,95919.89
2019-02-21T16:17:32.207Z,95917.17
2019-02-21T16:20:39.564Z,95929.30
2019-02-21T16:23:54.108Z,95930.77
2019-02-21T16:27:04.061Z,95934.67
2019-02-21T16:30:12.782Z,95934.62
2019-02-21T16:33:20.506Z,95936.31
2019-02-21T16:36:28.866Z,95944.57
2019-02-21T16:39:37.474Z,95943.44
2019-02-21T16:42:45.374Z,95949.88
2019-02-21T16:45:54.213Z,95947.33
2019-02-21T16:49:02.836Z,95947.98
2019-02-21T16:52:10.913Z,95958.12
2019-02-21T16:55:18.536Z,95960.48
2019-02-21T16:58:26.284Z,95961.28
2019-02-21T17:01:33.790Z,95963.28
2019-02-21T17:04:41.901Z,95963.82
2019-02-21T17:07:49.317Z,95966.61
2019-02-21T17:10:56.724Z,95966.94
2019-02-21T17:14:04.379Z,95980.47
2019-02-21T17:17:11.696Z,95974.34
2019-02-21T17:20:19.705Z,95978.60
2019-02-21T17:23:27.418Z,95984.22
2019-02-21T17:26:35.048Z,95985.29
2019-02-21T17:29:42.836Z,95991.56
2019-02-21T17:32:50.766Z,95999.07
2019-02-21T17:35:59.466Z,96006.40
2019-02-21T17:39:08.349Z,96002.91
2019-02-21T17:42:16.433Z,96001.25
2019-02-21T17:45:23.996Z,96005.92
2019-02-21T17:48:32.096Z,96012.61
2019-02-21T17:51:39.723Z,96009.70
2019-02-21T17:54:47.719Z,96005.14
2019-02-21T17:57:56.102Z,96006.77
2019-02-21T18:01:04.677Z,96012.27
2019-02-21T18:04:15.432Z,96018.69
2019-02-21T18:07:23.393Z,96015.70
2019-02-21T18:10:30.993Z,96020.59
2019-02-21T18:13:38.898Z,96019.69
2019-02-21T18:16:47.048Z,96018.52
2019-02-21T18:19:54.788Z,96011.55
2019-02-21T18:23:09.733Z,96007.33
2019-02-21T18:26:18.455Z,96009.65
2019-02-21T18:29:26.049Z,96012.85
2019-02-21T18:32:33.842Z,96018.19
2019-02-21T18:35:41.815Z,96018.52
2019-02-21T18:38:49.550Z,96026.07
2019-02-21T18:41:57.142Z,96022.02
2019-02-21T18:45:05.622Z,96015.13
2019-02-21T18:48:13.714Z,96021.16
2019-02-21T18:51:22.075Z,96022.07
2019-02-21T18:54:29.922Z,96021.55
2019-02-21T18:57:37.505Z,96019.38
2019-02-21T19:00:45.154Z,96026.12
2019-02-21T19:03:53.070Z,96025.13
2019-02-21T19:07:01.380Z,96029.09
2019-02-21T19:10:11.425Z,96031.94
2019-02-21T19:13:19.606Z,96029.23
2019-02-21T19:16:27.497Z,96036.36
2019-02-21T19:19:35.587Z,96035.41
2019-02-21T19:22:43.839Z,96035.09
2019-02-21T19:25:51.897Z,96042.58
2019-02-21T19:28:59.558Z,96046.19
2019-02-21T19:32:07.501Z,96052.98
2019-02-21T19:35:16.152Z,96052.45
2019-02-21T19:38:24.064Z,96060.69
2019-02-21T19:41:32.189Z,96069.67
2019-02-21T19:44:39.734Z,96062.47
2019-02-21T19:47:47.991Z,96063.65
2019-02-21T19:50:55.967Z,96066.77
2019-02-21T19:54:03.857Z,96073.09
2019-02-21T19:57:11.682Z,96071.30
2019-02-21T20:00:21.642Z,96071.92
2019-02-21T20:03:29.504Z,96072.45
2019-02-21T20:06:36.937Z,96077.72
2019-02-21T20:09:44.549Z,96083.34
2019-02-21T20:12:52.126Z,96088.66
2019-02-21T20:15:59.908Z,96089.33
2019-02-21T20:19:07.396Z,96086.42
2019-02-21T20:22:15.083Z,96091.17
2019-02-21T20:25:23.225Z,96088.05
2019-02-21T20:28:30.823Z,96097.20
2019-02-21T20:31:39.035Z,96092.77
2019-02-21T20:34:47.162Z,96089.33
2019-02-21T20:37:54.862Z,96086.77
2019-02-21T20:41:02.691Z,96087.90
2019-02-21T20:44:10.264Z,96088.42
2019-02-21T20:47:17.971Z,96086.77
2019-02-21T20:50:25.861Z,96098.67
2019-02-21T20:53:33.543Z,96095.28
2019-02-21T20:56:41.702Z,96103.22
2019-02-21T20:59:49.441Z,96105.98
2019-02-21T21:02:56.988Z,96104.58
2019-02-21T21:06:04.788Z,96108.01
2019-02-21T21:09:12.222Z,96104.88
2019-02-21T21:12:19.898Z,96109.06
2019-02-21T21:15:27.668Z,96111.75
2019-02-21T21:18:35.633Z,96109.38
2019-02-21T21:21:43.111Z,96105.67
2019-02-21T21:24:51.197Z,96108.59
2019-02-21T21:27:59.345Z,96101.76
2019-02-21T21:31:07.207Z,96104.06
2019-02-21T21:34:14.599Z,96097.20
2019-02-21T21:37:22.373Z,96095.12
2019-02-21T21:40:29.939Z,96107.97
2019-02-21T21:43:38.225Z,96119.13
2019-02-21T21:46:46.152Z,96115.21
2019-02-21T21:49:53.848Z,96119.56
2019-02-21T21:53:01.584Z,96122.49
2019-02-21T21:56:09.491Z,96120.64
2019-02-21T21:59:16.896Z,96114.00
2019-02-21T22:02:24.352Z,96118.27
2019-02-21T22:05:31.869Z,96128.59
2019-02-21T22:08:39.503Z,96126.23
2019-02-21T22:11:47.296Z,96121.23
2019-02-21T22:14:54.769Z,96113.27
2019-02-21T22:18:03.037Z,96104.25
2019-02-21T22:21:11.032Z,96108.47
2019-02-21T22:24:18.977Z,96102.82
2019-02-21T22:27:26.643Z,96102.03
2019-02-21T22:30:34.095Z,96099.69
2019-02-21T22:33:41.761Z,96107.03
2019-02-21T22:36:49.420Z,96106.28
2019-02-21T22:39:56.851Z,96105.76
2019-02-21T22:43:04.748Z,96105.23
2019-02-21T22:46:12.435Z,96101.55
2019-02-21T22:49:19.869Z,96105.19
2019-02-21T22:52:27.215Z,96107.56
2019-02-21T22:55:35.224Z,96115.17
2019-02-21T22:58:45.332Z,96112.35
2019-02-21T23:01:53.963Z,96109.11
2019-02-21T23:05:50.342Z,96112.84
2019-02-21T23:08:58.195Z,96118.08
2019-02-21T23:12:06.468Z,96110.42
2019-02-21T23:15:14.273Z,96114.13
2019-02-21T23:18:22.454Z,96119.35
2019-02-21T23:21:30.067Z,96119.61
2019-02-21T23:24:37.538Z,96122.56
2019-02-21T23:27:45.276Z,96122.52
2019-02-21T23:30:52.940Z,96121.91
2019-02-21T23:34:00.998Z,96126.17
2019-02-21T23:37:08.607Z,96117.25
2019-02-21T23:40:16.288Z,96126.02
2019-02-21T23:43:23.668Z,96118.64
2019-02-21T23:46:31.072Z,96128.88
2019-02-21T23:49:38.778Z,96130.25
2019-02-21T23:52:46.177Z,96130.73
2019-02-21T23:55:53.772Z,96133.59
2019-02-21T23:59:01.188Z,96132.99
